sensor_id;sensor_type;location;lat;lon;timestamp;pressure;altitude;pressure_sealevel;temperature;humidity
50732;BME280;36700;50.488;2.544;2023-05-03T00:00:45;102375.13;;;16.27;50.70
50732;BME280;36700;50.488;2.544;2023-05-03T00:03:11;102380.72;;;16.25;50.87
50732;BME280;36700;50.488;2.544;2023-05-03T00:05:38;102369.06;;;16.25;50.79
50732;BME280;36700;50.488;2.544;2023-05-03T00:08:04;102364.00;;;16.22;50.74
50732;BME280;36700;50.488;2.544;2023-05-03T00:10:30;102374.88;;;16.22;50.73
50732;BME280;36700;50.488;2.544;2023-05-03T00:12:56;102360.84;;;16.18;51.02
50732;BME280;36700;50.488;2.544;2023-05-03T00:15:22;102366.28;;;16.18;50.81
50732;BME280;36700;50.488;2.544;2023-05-03T00:17:47;102372.75;;;16.17;51.02
50732;BME280;36700;50.488;2.544;2023-05-03T00:20:13;102369.19;;;16.17;50.92
50732;BME280;36700;50.488;2.544;2023-05-03T00:22:40;102365.03;;;16.14;50.98
50732;BME280;36700;50.488;2.544;2023-05-03T00:25:08;102361.66;;;16.12;50.91
50732;BME280;36700;50.488;2.544;2023-05-03T00:27:35;102367.28;;;16.10;50.35
50732;BME280;36700;50.488;2.544;2023-05-03T00:30:01;102369.16;;;16.10;50.58
50732;BME280;36700;50.488;2.544;2023-05-03T00:32:27;102359.34;;;16.09;50.56
50732;BME280;36700;50.488;2.544;2023-05-03T00:34:54;102361.41;;;16.07;50.80
50732;BME280;36700;50.488;2.544;2023-05-03T00:37:20;102361.63;;;16.05;50.63
50732;BME280;36700;50.488;2.544;2023-05-03T00:39:45;102351.16;;;16.02;50.92
50732;BME280;36700;50.488;2.544;2023-05-03T00:42:11;102352.81;;;16.03;50.80
50732;BME280;36700;50.488;2.544;2023-05-03T00:44:37;102350.31;;;16.01;51.11
50732;BME280;36700;50.488;2.544;2023-05-03T00:47:03;102345.91;;;16.00;50.84
50732;BME280;36700;50.488;2.544;2023-05-03T00:49:29;102346.31;;;15.97;50.36
50732;BME280;36700;50.488;2.544;2023-05-03T00:51:55;102347.16;;;15.98;50.85
50732;BME280;36700;50.488;2.544;2023-05-03T00:54:26;102350.91;;;15.97;50.82
50732;BME280;36700;50.488;2.544;2023-05-03T00:56:52;102355.69;;;15.95;50.66
50732;BME280;36700;50.488;2.544;2023-05-03T00:59:18;102354.03;;;15.94;50.85
50732;BME280;36700;50.488;2.544;2023-05-03T01:01:49;102358.75;;;15.92;51.02
50732;BME280;36700;50.488;2.544;2023-05-03T01:04:16;102354.38;;;15.91;50.83
50732;BME280;36700;50.488;2.544;2023-05-03T01:07:10;102349.97;;;15.89;51.08
50732;BME280;36700;50.488;2.544;2023-05-03T01:09:59;102344.97;;;15.86;51.00
50732;BME280;36700;50.488;2.544;2023-05-03T01:12:48;102351.22;;;15.87;51.11
50732;BME280;36700;50.488;2.544;2023-05-03T01:15:43;102351.41;;;15.85;50.78
50732;BME280;36700;50.488;2.544;2023-05-03T01:18:14;102353.47;;;15.83;51.04
50732;BME280;36700;50.488;2.544;2023-05-03T01:20:45;102346.38;;;15.82;50.66
50732;BME280;36700;50.488;2.544;2023-05-03T01:23:28;102332.38;;;15.79;50.97
50732;BME280;36700;50.488;2.544;2023-05-03T01:25:56;102323.38;;;15.78;50.77
50732;BME280;36700;50.488;2.544;2023-05-03T01:28:22;102316.28;;;15.77;51.18
50732;BME280;36700;50.488;2.544;2023-05-03T01:30:49;102311.06;;;15.75;50.92
50732;BME280;36700;50.488;2.544;2023-05-03T01:33:29;102305.84;;;15.74;50.96
50732;BME280;36700;50.488;2.544;2023-05-03T01:36:28;102300.81;;;15.71;50.60
50732;BME280;36700;50.488;2.544;2023-05-03T01:38:52;102294.75;;;15.69;51.10
50732;BME280;36700;50.488;2.544;2023-05-03T01:41:19;102303.72;;;15.69;50.95
50732;BME280;36700;50.488;2.544;2023-05-03T01:43:47;102308.50;;;15.67;51.04
50732;BME280;36700;50.488;2.544;2023-05-03T01:46:14;102313.06;;;15.67;50.51
50732;BME280;36700;50.488;2.544;2023-05-03T01:48:43;102320.38;;;15.66;50.89
50732;BME280;36700;50.488;2.544;2023-05-03T01:51:09;102325.16;;;15.64;50.82
50732;BME280;36700;50.488;2.544;2023-05-03T01:53:35;102325.16;;;15.64;50.84
50732;BME280;36700;50.488;2.544;2023-05-03T01:56:02;102328.06;;;15.63;50.88
50732;BME280;36700;50.488;2.544;2023-05-03T01:58:28;102313.66;;;15.62;50.88
50732;BME280;36700;50.488;2.544;2023-05-03T02:00:54;102320.13;;;15.61;50.71
50732;BME280;36700;50.488;2.544;2023-05-03T02:03:19;102320.72;;;15.56;51.01
50732;BME280;36700;50.488;2.544;2023-05-03T02:05:47;102326.16;;;15.56;50.84
50732;BME280;36700;50.488;2.544;2023-05-03T02:08:13;102324.25;;;15.57;50.55
50732;BME280;36700;50.488;2.544;2023-05-03T02:10:39;102318.19;;;15.55;51.05
50732;BME280;36700;50.488;2.544;2023-05-03T02:13:05;102328.19;;;15.54;50.98
50732;BME280;36700;50.488;2.544;2023-05-03T02:15:30;102332.81;;;15.54;50.79
50732;BME280;36700;50.488;2.544;2023-05-03T02:17:56;102333.84;;;15.53;50.97
50732;BME280;36700;50.488;2.544;2023-05-03T02:20:23;102327.75;;;15.51;50.75
50732;BME280;36700;50.488;2.544;2023-05-03T02:22:49;102329.63;;;15.50;50.95
50732;BME280;36700;50.488;2.544;2023-05-03T02:25:14;102330.88;;;15.47;50.80
50732;BME280;36700;50.488;2.544;2023-05-03T02:27:40;102333.56;;;15.47;50.58
50732;BME280;36700;50.488;2.544;2023-05-03T02:30:07;102329.38;;;15.45;50.84
50732;BME280;36700;50.488;2.544;2023-05-03T02:32:33;102327.50;;;15.45;50.71
50732;BME280;36700;50.488;2.544;2023-05-03T02:34:59;102331.44;;;15.43;50.70
50732;BME280;36700;50.488;2.544;2023-05-03T02:37:25;102330.59;;;15.42;50.83
50732;BME280;36700;50.488;2.544;2023-05-03T02:39:51;102337.06;;;15.41;50.60
50732;BME280;36700;50.488;2.544;2023-05-03T02:42:17;102325.56;;;15.39;50.70
50732;BME280;36700;50.488;2.544;2023-05-03T02:44:43;102326.41;;;15.40;50.24
50732;BME280;36700;50.488;2.544;2023-05-03T02:47:10;102321.16;;;15.38;50.83
50732;BME280;36700;50.488;2.544;2023-05-03T02:49:36;102328.47;;;15.38;50.29
50732;BME280;36700;50.488;2.544;2023-05-03T02:52:02;102327.00;;;15.35;50.62
50732;BME280;36700;50.488;2.544;2023-05-03T02:54:28;102326.16;;;15.34;50.52
50732;BME280;36700;50.488;2.544;2023-05-03T02:56:54;102334.28;;;15.34;50.37
50732;BME280;36700;50.488;2.544;2023-05-03T02:59:20;102331.75;;;15.33;50.76
50732;BME280;36700;50.488;2.544;2023-05-03T03:01:46;102333.63;;;15.32;50.46
50732;BME280;36700;50.488;2.544;2023-05-03T03:04:12;102324.84;;;15.30;50.20
50732;BME280;36700;50.488;2.544;2023-05-03T03:06:38;102325.88;;;15.29;50.48
50732;BME280;36700;50.488;2.544;2023-05-03T03:09:04;102326.91;;;15.28;50.42
50732;BME280;36700;50.488;2.544;2023-05-03T03:11:30;102332.53;;;15.27;50.51
50732;BME280;36700;50.488;2.544;2023-05-03T03:13:56;102336.28;;;15.26;50.27
50732;BME280;36700;50.488;2.544;2023-05-03T03:16:22;102330.03;;;15.25;50.75
50732;BME280;36700;50.488;2.544;2023-05-03T03:18:48;102319.38;;;15.24;50.12
50732;BME280;36700;50.488;2.544;2023-05-03T03:21:14;102315.00;;;15.23;50.57
50732;BME280;36700;50.488;2.544;2023-05-03T03:23:40;102313.28;;;15.21;50.00
50732;BME280;36700;50.488;2.544;2023-05-03T03:26:05;102316.00;;;15.21;50.48
50732;BME280;36700;50.488;2.544;2023-05-03T03:28:31;102310.78;;;15.20;50.50
50732;BME280;36700;50.488;2.544;2023-05-03T03:30:57;102328.09;;;15.19;50.70
50732;BME280;36700;50.488;2.544;2023-05-03T03:33:23;102321.81;;;15.18;49.97
50732;BME280;36700;50.488;2.544;2023-05-03T03:35:50;102320.16;;;15.17;50.91
50732;BME280;36700;50.488;2.544;2023-05-03T03:38:16;102320.34;;;15.16;50.33
50732;BME280;36700;50.488;2.544;2023-05-03T03:40:42;102310.72;;;15.13;50.19
50732;BME280;36700;50.488;2.544;2023-05-03T03:43:08;102300.91;;;15.12;50.41
50732;BME280;36700;50.488;2.544;2023-05-03T03:45:34;102306.34;;;15.12;50.35
50732;BME280;36700;50.488;2.544;2023-05-03T03:48:00;102294.19;;;15.08;50.25
50732;BME280;36700;50.488;2.544;2023-05-03T03:50:26;102295.03;;;15.08;51.06
50732;BME280;36700;50.488;2.544;2023-05-03T03:52:52;102292.53;;;15.07;50.74
50732;BME280;36700;50.488;2.544;2023-05-03T03:55:18;102286.25;;;15.06;51.02
50732;BME280;36700;50.488;2.544;2023-05-03T03:57:44;102290.84;;;15.06;50.69
50732;BME280;36700;50.488;2.544;2023-05-03T04:00:10;102289.19;;;15.05;50.85
50732;BME280;36700;50.488;2.544;2023-05-03T04:02:37;102292.06;;;15.03;50.92
50732;BME280;36700;50.488;2.544;2023-05-03T04:05:03;102294.13;;;15.01;50.28
50732;BME280;36700;50.488;2.544;2023-05-03T04:07:29;102297.03;;;15.00;50.65
50732;BME280;36700;50.488;2.544;2023-05-03T04:09:55;102289.72;;;15.00;50.13
50732;BME280;36700;50.488;2.544;2023-05-03T04:12:21;102291.63;;;15.00;50.88
50732;BME280;36700;50.488;2.544;2023-05-03T04:14:47;102290.97;;;14.98;51.25
50732;BME280;36700;50.488;2.544;2023-05-03T04:17:13;102300.13;;;14.97;50.80
50732;BME280;36700;50.488;2.544;2023-05-03T04:19:39;102294.06;;;14.94;51.42
50732;BME280;36700;50.488;2.544;2023-05-03T04:22:05;102296.78;;;14.94;51.37
50732;BME280;36700;50.488;2.544;2023-05-03T04:24:31;102299.66;;;14.93;50.91
50732;BME280;36700;50.488;2.544;2023-05-03T04:26:56;102300.69;;;14.92;51.22
50732;BME280;36700;50.488;2.544;2023-05-03T04:29:23;102299.03;;;14.91;50.80
50732;BME280;36700;50.488;2.544;2023-05-03T04:31:49;102300.06;;;14.90;50.86
50732;BME280;36700;50.488;2.544;2023-05-03T04:34:15;102301.09;;;14.89;51.50
50732;BME280;36700;50.488;2.544;2023-05-03T04:36:42;102296.69;;;14.88;50.86
50732;BME280;36700;50.488;2.544;2023-05-03T04:39:10;102302.09;;;14.88;49.97
50732;BME280;36700;50.488;2.544;2023-05-03T04:41:36;102291.47;;;14.86;50.29
50732;BME280;36700;50.488;2.544;2023-05-03T04:44:04;102294.19;;;14.86;50.12
50732;BME280;36700;50.488;2.544;2023-05-03T04:46:30;102283.53;;;14.85;50.97
50732;BME280;36700;50.488;2.544;2023-05-03T04:48:56;102285.41;;;14.84;51.23
50732;BME280;36700;50.488;2.544;2023-05-03T04:51:22;102288.09;;;14.84;51.03
50732;BME280;36700;50.488;2.544;2023-05-03T04:53:48;102284.75;;;14.82;50.54
50732;BME280;36700;50.488;2.544;2023-05-03T04:56:14;102289.31;;;14.81;51.02
50732;BME280;36700;50.488;2.544;2023-05-03T04:58:40;102287.66;;;14.80;50.40
50732;BME280;36700;50.488;2.544;2023-05-03T05:01:07;102280.56;;;14.79;51.04
50732;BME280;36700;50.488;2.544;2023-05-03T05:03:33;102297.66;;;14.80;50.85
50732;BME280;36700;50.488;2.544;2023-05-03T05:05:59;102293.47;;;14.77;50.56
50732;BME280;36700;50.488;2.544;2023-05-03T05:08:25;102295.13;;;14.78;50.62
50732;BME280;36700;50.488;2.544;2023-05-03T05:10:51;102295.13;;;14.78;50.74
50732;BME280;36700;50.488;2.544;2023-05-03T05:13:17;102290.75;;;14.77;49.27
50732;BME280;36700;50.488;2.544;2023-05-03T05:15:43;102298.88;;;14.77;49.36
50732;BME280;36700;50.488;2.544;2023-05-03T05:18:09;102305.97;;;14.78;49.04
50732;BME280;36700;50.488;2.544;2023-05-03T05:20:35;102311.38;;;14.78;48.92
50732;BME280;36700;50.488;2.544;2023-05-03T05:23:01;102305.13;;;14.78;49.04
50732;BME280;36700;50.488;2.544;2023-05-03T05:25:27;102302.63;;;14.76;49.54
50732;BME280;36700;50.488;2.544;2023-05-03T05:27:53;102303.44;;;14.77;49.24
50732;BME280;36700;50.488;2.544;2023-05-03T05:30:19;102303.44;;;14.77;49.33
50732;BME280;36700;50.488;2.544;2023-05-03T05:32:45;102298.22;;;14.75;48.94
50732;BME280;36700;50.488;2.544;2023-05-03T05:35:11;102299.06;;;14.76;50.04
50732;BME280;36700;50.488;2.544;2023-05-03T05:37:37;102290.28;;;14.74;50.37
50732;BME280;36700;50.488;2.544;2023-05-03T05:40:03;102297.53;;;14.73;50.37
50732;BME280;36700;50.488;2.544;2023-05-03T05:42:29;102297.84;;;14.63;50.16
50732;BME280;36700;50.488;2.544;2023-05-03T05:44:55;102291.38;;;13.74;49.30
50732;BME280;36700;50.488;2.544;2023-05-03T05:47:21;102289.16;;;13.78;49.71
50732;BME280;36700;50.488;2.544;2023-05-03T05:49:47;102282.94;;;13.92;49.77
50732;BME280;36700;50.488;2.544;2023-05-03T05:52:13;102287.69;;;14.05;49.31
50732;BME280;36700;50.488;2.544;2023-05-03T05:54:39;102279.69;;;14.12;50.04
50732;BME280;36700;50.488;2.544;2023-05-03T05:57:05;102288.72;;;14.19;50.12
50732;BME280;36700;50.488;2.544;2023-05-03T05:59:31;102287.16;;;14.25;49.34
50732;BME280;36700;50.488;2.544;2023-05-03T06:01:57;102289.47;;;14.28;49.56
50732;BME280;36700;50.488;2.544;2023-05-03T06:04:25;102289.13;;;14.31;49.85
50732;BME280;36700;50.488;2.544;2023-05-03T06:06:51;102287.06;;;14.33;48.83
50732;BME280;36700;50.488;2.544;2023-05-03T06:09:17;102284.34;;;14.33;49.45
50732;BME280;36700;50.488;2.544;2023-05-03T06:11:43;102293.09;;;14.35;49.66
50732;BME280;36700;50.488;2.544;2023-05-03T06:14:09;102293.78;;;14.37;50.15
50732;BME280;36700;50.488;2.544;2023-05-03T06:16:38;102298.16;;;14.38;49.68
50732;BME280;36700;50.488;2.544;2023-05-03T06:19:04;102292.34;;;14.41;49.79
50732;BME280;36700;50.488;2.544;2023-05-03T06:21:30;102297.69;;;14.50;49.30
50732;BME280;36700;50.488;2.544;2023-05-03T06:23:56;102296.63;;;14.66;49.43
50732;BME280;36700;50.488;2.544;2023-05-03T06:26:22;102301.19;;;14.80;48.96
50732;BME280;36700;50.488;2.544;2023-05-03T06:28:48;102295.28;;;14.92;48.99
50732;BME280;36700;50.488;2.544;2023-05-03T06:31:15;102293.47;;;14.99;48.49
50732;BME280;36700;50.488;2.544;2023-05-03T06:33:41;102293.75;;;15.04;47.87
50732;BME280;36700;50.488;2.544;2023-05-03T06:36:07;102291.47;;;15.08;47.85
50732;BME280;36700;50.488;2.544;2023-05-03T06:38:34;102286.31;;;15.13;47.39
50732;BME280;36700;50.488;2.544;2023-05-03T06:41:00;102289.75;;;15.22;47.50
50732;BME280;36700;50.488;2.544;2023-05-03T06:43:25;102284.00;;;15.32;47.01
50732;BME280;36700;50.488;2.544;2023-05-03T06:45:51;102293.63;;;15.56;47.02
50732;BME280;36700;50.488;2.544;2023-05-03T06:48:20;102279.19;;;15.84;46.09
50732;BME280;36700;50.488;2.544;2023-05-03T06:50:46;102277.38;;;16.27;45.38
50732;BME280;36700;50.488;2.544;2023-05-03T06:53:12;102280.97;;;16.90;44.01
50732;BME280;36700;50.488;2.544;2023-05-03T06:55:38;102276.53;;;18.37;40.66
50732;BME280;36700;50.488;2.544;2023-05-03T06:58:04;102281.56;;;19.44;37.91
50732;BME280;36700;50.488;2.544;2023-05-03T07:00:34;102280.22;;;19.78;37.26
50732;BME280;36700;50.488;2.544;2023-05-03T07:03:00;102279.13;;;19.80;37.15
50732;BME280;36700;50.488;2.544;2023-05-03T07:05:26;102286.25;;;20.06;37.00
50732;BME280;36700;50.488;2.544;2023-05-03T07:07:52;102283.00;;;20.16;36.59
50732;BME280;36700;50.488;2.544;2023-05-03T07:10:18;102291.81;;;20.37;36.40
50732;BME280;36700;50.488;2.544;2023-05-03T07:12:44;102290.63;;;20.44;35.76
50732;BME280;36700;50.488;2.544;2023-05-03T07:15:10;102286.53;;;20.54;35.63
50732;BME280;36700;50.488;2.544;2023-05-03T07:17:36;102281.59;;;20.63;35.81
50732;BME280;36700;50.488;2.544;2023-05-03T07:20:02;102284.97;;;20.77;35.57
50732;BME280;36700;50.488;2.544;2023-05-03T07:22:28;102285.97;;;20.64;35.45
50732;BME280;36700;50.488;2.544;2023-05-03T07:24:54;102285.78;;;20.47;36.46
50732;BME280;36700;50.488;2.544;2023-05-03T07:27:23;102289.22;;;20.23;36.21
50732;BME280;36700;50.488;2.544;2023-05-03T07:29:52;102290.53;;;20.02;36.49
50732;BME280;36700;50.488;2.544;2023-05-03T07:32:18;102283.78;;;19.79;37.13
50732;BME280;36700;50.488;2.544;2023-05-03T07:34:44;102293.31;;;19.70;37.45
50732;BME280;36700;50.488;2.544;2023-05-03T07:37:10;102284.50;;;18.39;40.00
50732;BME280;36700;50.488;2.544;2023-05-03T07:39:36;102282.75;;;17.18;42.38
50732;BME280;36700;50.488;2.544;2023-05-03T07:42:02;102290.94;;;16.69;44.01
50732;BME280;36700;50.488;2.544;2023-05-03T07:44:28;102289.34;;;16.33;44.75
50732;BME280;36700;50.488;2.544;2023-05-03T07:46:55;102285.03;;;16.10;45.49
50732;BME280;36700;50.488;2.544;2023-05-03T07:49:21;102285.16;;;15.95;46.06
50732;BME280;36700;50.488;2.544;2023-05-03T07:51:47;102287.34;;;15.84;46.35
50732;BME280;36700;50.488;2.544;2023-05-03T07:54:13;102288.13;;;15.78;46.61
50732;BME280;36700;50.488;2.544;2023-05-03T07:56:38;102289.31;;;15.69;46.32
50732;BME280;36700;50.488;2.544;2023-05-03T07:59:04;102284.88;;;15.61;46.89
50732;BME280;36700;50.488;2.544;2023-05-03T08:01:30;102287.75;;;15.53;47.31
50732;BME280;36700;50.488;2.544;2023-05-03T08:03:56;102286.03;;;15.52;47.26
50732;BME280;36700;50.488;2.544;2023-05-03T08:06:23;102285.81;;;15.46;47.82
50732;BME280;36700;50.488;2.544;2023-05-03T08:08:49;102279.91;;;15.43;47.62
50732;BME280;36700;50.488;2.544;2023-05-03T08:11:15;102277.81;;;15.38;47.72
50732;BME280;36700;50.488;2.544;2023-05-03T08:13:41;102275.69;;;15.33;47.89
50732;BME280;36700;50.488;2.544;2023-05-03T08:16:07;102276.31;;;15.35;47.72
50732;BME280;36700;50.488;2.544;2023-05-03T08:18:33;102274.00;;;15.32;47.76
50732;BME280;36700;50.488;2.544;2023-05-03T08:20:59;102265.22;;;15.30;47.59
50732;BME280;36700;50.488;2.544;2023-05-03T08:23:25;102269.81;;;15.30;47.65
50732;BME280;36700;50.488;2.544;2023-05-03T08:25:51;102261.03;;;15.28;48.09
50732;BME280;36700;50.488;2.544;2023-05-03T08:28:17;102261.69;;;15.30;48.27
50732;BME280;36700;50.488;2.544;2023-05-03T08:30:42;102254.38;;;15.30;48.13
50732;BME280;36700;50.488;2.544;2023-05-03T08:33:09;102255.59;;;15.28;48.62
50732;BME280;36700;50.488;2.544;2023-05-03T08:35:35;102259.56;;;15.25;48.52
50732;BME280;36700;50.488;2.544;2023-05-03T08:38:01;102251.63;;;15.24;48.65
50732;BME280;36700;50.488;2.544;2023-05-03T08:40:30;102250.13;;;15.21;48.52
50732;BME280;36700;50.488;2.544;2023-05-03T08:43:08;102261.63;;;15.23;48.50
50732;BME280;36700;50.488;2.544;2023-05-03T08:45:34;102263.50;;;15.23;48.28
50732;BME280;36700;50.488;2.544;2023-05-03T08:48:00;102251.63;;;15.24;48.97
50732;BME280;36700;50.488;2.544;2023-05-03T08:50:30;102254.53;;;15.22;48.29
50732;BME280;36700;50.488;2.544;2023-05-03T08:52:56;102259.56;;;15.25;48.39
50732;BME280;36700;50.488;2.544;2023-05-03T08:55:23;102255.19;;;15.02;48.37
50732;BME280;36700;50.488;2.544;2023-05-03T08:57:49;102256.00;;;14.81;47.93
50732;BME280;36700;50.488;2.544;2023-05-03T09:00:16;102251.81;;;14.63;48.23
50732;BME280;36700;50.488;2.544;2023-05-03T09:02:44;102247.88;;;14.66;48.03
50732;BME280;36700;50.488;2.544;2023-05-03T09:07:52;102246.00;;;14.66;47.96
50732;BME280;36700;50.488;2.544;2023-05-03T09:10:24;102253.16;;;14.52;47.96
50732;BME280;36700;50.488;2.544;2023-05-03T09:12:57;102240.72;;;14.58;47.66
50732;BME280;36700;50.488;2.544;2023-05-03T09:15:22;102243.13;;;14.68;48.16
50732;BME280;36700;50.488;2.544;2023-05-03T09:18:08;102233.03;;;14.77;48.34
50732;BME280;36700;50.488;2.544;2023-05-03T09:20:35;102232.91;;;14.85;48.48
50732;BME280;36700;50.488;2.544;2023-05-03T09:23:01;102236.09;;;14.89;48.34
50732;BME280;36700;50.488;2.544;2023-05-03T09:25:40;102236.53;;;14.92;48.04
50732;BME280;36700;50.488;2.544;2023-05-03T09:28:06;102232.38;;;14.97;47.91
50732;BME280;36700;50.488;2.544;2023-05-03T09:30:33;102225.97;;;14.98;47.74
50732;BME280;36700;50.488;2.544;2023-05-03T09:32:59;102232.22;;;14.98;48.09
50732;BME280;36700;50.488;2.544;2023-05-03T09:35:25;102238.25;;;15.00;48.03
50732;BME280;36700;50.488;2.544;2023-05-03T09:37:51;102227.22;;;15.02;47.82
50732;BME280;36700;50.488;2.544;2023-05-03T09:40:17;102237.03;;;15.03;48.16
50732;BME280;36700;50.488;2.544;2023-05-03T09:43:03;102231.84;;;15.01;48.06
50732;BME280;36700;50.488;2.544;2023-05-03T09:45:29;102225.56;;;15.01;48.27
50732;BME280;36700;50.488;2.544;2023-05-03T09:47:56;102233.69;;;15.01;48.20
50732;BME280;36700;50.488;2.544;2023-05-03T09:50:23;102227.41;;;15.00;48.02
50732;BME280;36700;50.488;2.544;2023-05-03T09:52:50;102230.34;;;14.99;48.38
50732;BME280;36700;50.488;2.544;2023-05-03T09:55:16;102223.91;;;15.00;48.34
50732;BME280;36700;50.488;2.544;2023-05-03T09:57:46;102217.63;;;14.99;48.20
50732;BME280;36700;50.488;2.544;2023-05-03T10:00:13;102212.44;;;14.98;48.27
50732;BME280;36700;50.488;2.544;2023-05-03T10:02:41;102213.66;;;14.95;48.34
50732;BME280;36700;50.488;2.544;2023-05-03T10:05:10;102205.72;;;14.93;48.50
50732;BME280;36700;50.488;2.544;2023-05-03T10:07:39;102210.72;;;14.97;48.68
50732;BME280;36700;50.488;2.544;2023-05-03T10:10:06;102204.47;;;14.96;48.55
50732;BME280;36700;50.488;2.544;2023-05-03T10:12:33;102204.47;;;14.96;48.38
50732;BME280;36700;50.488;2.544;2023-05-03T10:15:04;102203.63;;;14.96;48.40
50732;BME280;36700;50.488;2.544;2023-05-03T10:17:36;102200.91;;;14.96;48.44
50732;BME280;36700;50.488;2.544;2023-05-03T10:23:09;102206.53;;;15.16;47.37
50732;BME280;36700;50.488;2.544;2023-05-03T10:25:37;102209.59;;;15.13;46.11
50732;BME280;36700;50.488;2.544;2023-05-03T10:28:05;102190.88;;;15.11;45.49
50732;BME280;36700;50.488;2.544;2023-05-03T10:30:36;102191.94;;;15.17;45.89
50732;BME280;36700;50.488;2.544;2023-05-03T10:35:41;102196.53;;;15.16;45.57
50732;BME280;36700;50.488;2.544;2023-05-03T10:38:15;102183.38;;;15.13;45.44
50732;BME280;36700;50.488;2.544;2023-05-03T10:40:42;102177.31;;;15.11;45.57
50732;BME280;36700;50.488;2.544;2023-05-03T10:43:44;102168.34;;;15.11;45.99
50732;BME280;36700;50.488;2.544;2023-05-03T10:46:29;102160.22;;;15.11;45.75
50732;BME280;36700;50.488;2.544;2023-05-03T10:49:18;102162.09;;;15.10;45.71
50732;BME280;36700;50.488;2.544;2023-05-03T10:51:44;102158.72;;;15.08;46.16
50732;BME280;36700;50.488;2.544;2023-05-03T10:54:11;102154.97;;;15.09;46.16
50732;BME280;36700;50.488;2.544;2023-05-03T10:56:47;102150.59;;;15.08;46.47
50732;BME280;36700;50.488;2.544;2023-05-03T10:59:14;102143.03;;;15.25;45.08
50732;BME280;36700;50.488;2.544;2023-05-03T11:01:42;102132.28;;;15.39;45.39
50732;BME280;36700;50.488;2.544;2023-05-03T11:04:12;102131.75;;;15.57;45.04
50732;BME280;36700;50.488;2.544;2023-05-03T11:06:40;102130.38;;;15.74;44.65
50732;BME280;36700;50.488;2.544;2023-05-03T11:09:08;102121.06;;;15.84;44.76
50732;BME280;36700;50.488;2.544;2023-05-03T11:11:36;102119.66;;;15.95;44.49
50732;BME280;36700;50.488;2.544;2023-05-03T11:14:02;102115.53;;;16.12;44.03
50732;BME280;36700;50.488;2.544;2023-05-03T11:16:28;102114.94;;;16.24;44.07
50732;BME280;36700;50.488;2.544;2023-05-03T11:18:55;102117.91;;;16.29;43.95
50732;BME280;36700;50.488;2.544;2023-05-03T11:21:21;102119.56;;;16.37;43.72
50732;BME280;36700;50.488;2.544;2023-05-03T11:23:48;102114.53;;;16.40;44.03
50732;BME280;36700;50.488;2.544;2023-05-03T11:26:13;102116.25;;;16.48;43.75
50732;BME280;36700;50.488;2.544;2023-05-03T11:28:40;102111.22;;;16.52;43.71
50732;BME280;36700;50.488;2.544;2023-05-03T11:31:08;102102.03;;;16.53;43.84
50732;BME280;36700;50.488;2.544;2023-05-03T11:33:36;102102.25;;;16.58;43.68
50732;BME280;36700;50.488;2.544;2023-05-03T11:36:04;102098.28;;;16.61;43.71
50732;BME280;36700;50.488;2.544;2023-05-03T11:38:37;102081.34;;;16.65;44.06
50732;BME280;36700;50.488;2.544;2023-05-03T11:41:16;102082.00;;;16.67;43.95
50732;BME280;36700;50.488;2.544;2023-05-03T11:43:47;102084.53;;;16.69;43.94
50732;BME280;36700;50.488;2.544;2023-05-03T11:46:21;102082.63;;;16.69;44.08
50732;BME280;36700;50.488;2.544;2023-05-03T11:48:48;102073.03;;;16.74;43.61
50732;BME280;36700;50.488;2.544;2023-05-03T11:51:14;102082.84;;;16.75;43.94
50732;BME280;36700;50.488;2.544;2023-05-03T11:53:40;102070.50;;;16.72;43.98
50732;BME280;36700;50.488;2.544;2023-05-03T11:56:10;102077.81;;;16.78;43.92
50732;BME280;36700;50.488;2.544;2023-05-03T11:58:52;102065.69;;;16.74;44.09
50732;BME280;36700;50.488;2.544;2023-05-03T12:01:19;102065.28;;;16.77;43.88
50732;BME280;36700;50.488;2.544;2023-05-03T12:03:56;102067.56;;;16.80;44.01
50732;BME280;36700;50.488;2.544;2023-05-03T12:06:22;102065.06;;;16.86;44.02
50732;BME280;36700;50.488;2.544;2023-05-03T12:08:49;102057.16;;;16.84;44.09
50732;BME280;36700;50.488;2.544;2023-05-03T12:11:15;102048.75;;;16.86;44.53
50732;BME280;36700;50.488;2.544;2023-05-03T12:13:41;102046.03;;;16.86;44.35
50732;BME280;36700;50.488;2.544;2023-05-03T12:16:09;102034.78;;;16.89;44.24
50732;BME280;36700;50.488;2.544;2023-05-03T12:21:15;102035.81;;;16.88;44.32
50732;BME280;36700;50.488;2.544;2023-05-03T12:23:41;102031.41;;;16.87;44.43
50732;BME280;36700;50.488;2.544;2023-05-03T12:26:07;102026.63;;;16.89;44.60
50732;BME280;36700;50.488;2.544;2023-05-03T12:28:33;102033.09;;;16.88;44.76
50732;BME280;36700;50.488;2.544;2023-05-03T12:30:59;102025.97;;;16.87;44.78
50732;BME280;36700;50.488;2.544;2023-05-03T12:33:25;102007.81;;;16.87;44.66
50732;BME280;36700;50.488;2.544;2023-05-03T12:35:51;102024.50;;;16.91;44.59
50732;BME280;36700;50.488;2.544;2023-05-03T12:38:17;102009.47;;;16.88;45.05
50732;BME280;36700;50.488;2.544;2023-05-03T12:40:44;102011.56;;;16.86;44.78
50732;BME280;36700;50.488;2.544;2023-05-03T12:43:11;101998.81;;;16.87;44.90
50732;BME280;36700;50.488;2.544;2023-05-03T12:45:37;101998.59;;;16.88;45.03
50732;BME280;36700;50.488;2.544;2023-05-03T12:48:03;101997.56;;;16.89;44.79
50732;BME280;36700;50.488;2.544;2023-05-03T12:50:29;102000.50;;;16.88;44.86
50732;BME280;36700;50.488;2.544;2023-05-03T12:52:55;101975.84;;;16.76;45.11
50732;BME280;36700;50.488;2.544;2023-05-03T12:55:21;101988.78;;;16.87;45.14
50732;BME280;36700;50.488;2.544;2023-05-03T12:57:47;101988.59;;;16.89;45.21
50732;BME280;36700;50.488;2.544;2023-05-03T13:00:13;101986.06;;;16.87;45.36
50732;BME280;36700;50.488;2.544;2023-05-03T13:02:42;101981.47;;;16.88;45.19